Time;durP1;ratioP1;P1;durP2;ratioP2;P2;SDS_P1;SDS_P2;PMS_P1;PMS_P2;Temp;Humidity;BMP_temperature;BMP_pressure;BME280_temperature;BME280_humidity;BME280_pressure;Samples;Min_cycle;Max_cycle;Signal;HPM_P1;HPM_P2
2022/12/24 00:00:33;;;;;;;36.60;8.75;;;10.50;99.90;;;;;;5115029;28;20173;-55
2022/12/24 00:03:00;;;;;;;34.13;8.13;;;10.60;99.90;;;;;;5115160;28;20542;-55
2022/12/24 00:05:25;;;;;;;37.20;8.40;;;10.60;99.90;;;;;;5114881;28;20205;-56
2022/12/24 00:07:51;;;;;;;31.80;8.23;;;10.50;99.90;;;;;;5114798;28;20212;-56
2022/12/24 00:10:17;;;;;;;33.92;8.13;;;10.50;99.90;;;;;;5114682;28;20197;-55
2022/12/24 00:12:42;;;;;;;39.97;9.25;;;10.40;99.90;;;;;;5113107;28;20181;-55
2022/12/24 00:15:09;;;;;;;40.83;9.43;;;10.40;99.90;;;;;;5114541;28;20630;-55
2022/12/24 00:17:34;;;;;;;37.58;8.88;;;10.30;99.90;;;;;;5114726;28;20256;-56
2022/12/24 00:20:00;;;;;;;34.88;8.55;;;10.20;99.90;;;;;;5114634;28;20252;-56
2022/12/24 00:22:26;;;;;;;30.33;8.32;;;10.30;99.90;;;;;;5114391;28;20170;-56
2022/12/24 00:24:51;;;;;;;33.25;8.48;;;10.40;99.90;;;;;;5114116;28;20173;-55
2022/12/24 00:27:17;;;;;;;35.80;9.00;;;10.40;99.90;;;;;;5114216;28;20170;-56
2022/12/24 00:29:43;;;;;;;37.60;8.50;;;10.40;99.90;;;;;;5114375;28;20688;-54
2022/12/24 00:32:12;;;;;;;35.63;8.68;;;10.40;99.90;;;;;;5114401;28;20228;-56
2022/12/24 00:34:39;;;;;;;37.35;9.57;;;10.40;99.90;;;;;;5114372;28;20538;-58
2022/12/24 00:37:05;;;;;;;35.13;8.63;;;10.40;99.90;;;;;;5114226;28;20184;-55
2022/12/24 00:39:31;;;;;;;35.20;8.55;;;10.30;99.90;;;;;;5114094;28;20649;-56
2022/12/24 00:41:57;;;;;;;35.90;9.25;;;10.40;99.90;;;;;;5113735;28;20181;-55
2022/12/24 00:44:23;;;;;;;36.92;8.25;;;10.40;99.90;;;;;;5114243;28;20252;-55
2022/12/24 00:46:49;;;;;;;37.88;8.98;;;10.40;99.90;;;;;;5114224;28;20212;-56
2022/12/24 00:49:15;;;;;;;41.28;9.60;;;10.50;99.90;;;;;;5114045;28;20254;-56
2022/12/24 00:51:41;;;;;;;40.72;8.85;;;10.50;99.90;;;;;;5112794;28;20232;-56
2022/12/24 00:54:07;;;;;;;34.60;8.80;;;10.60;99.90;;;;;;5113933;28;20169;-57
2022/12/24 00:56:33;;;;;;;42.53;8.93;;;10.60;99.90;;;;;;5113876;28;20177;-55
2022/12/24 00:59:02;;;;;;;40.58;8.35;;;10.60;99.90;;;;;;5113800;28;20165;-55
2022/12/24 01:01:28;;;;;;;35.70;8.27;;;10.60;99.90;;;;;;5113936;28;20565;-56
2022/12/24 01:05:09;;;;;;;39.85;9.05;;;10.70;99.90;;;;;;5113894;28;20169;-57
2022/12/24 01:06:40;;;;;;;31.15;8.60;;;10.70;99.90;;;;;;5113583;28;20195;-56
2022/12/24 01:09:05;;;;;;;32.00;8.27;;;10.80;99.90;;;;;;5113641;28;20173;-55
2022/12/24 01:11:31;;;;;;;38.80;8.40;;;10.70;99.90;;;;;;5113921;28;20262;-55
2022/12/24 01:13:57;;;;;;;36.45;8.18;;;10.70;99.90;;;;;;5113820;28;20169;-55
2022/12/24 01:16:22;;;;;;;36.08;8.07;;;10.70;99.90;;;;;;5114024;28;20165;-56
2022/12/24 01:18:48;;;;;;;33.10;7.80;;;10.80;99.90;;;;;;5113555;28;20196;-56
2022/12/24 01:21:14;;;;;;;30.92;8.45;;;10.80;99.90;;;;;;5113548;28;20515;-57
2022/12/24 01:23:40;;;;;;;29.98;7.72;;;10.90;99.90;;;;;;5113477;28;20169;-57
2022/12/24 01:26:06;;;;;;;30.25;7.18;;;10.90;99.90;;;;;;5113697;28;20221;-55
2022/12/24 01:28:32;;;;;;;36.97;7.82;;;11.00;99.90;;;;;;5113676;28;20683;-57
2022/12/24 01:30:58;;;;;;;27.42;7.57;;;11.00;99.90;;;;;;5113597;28;20200;-56
2022/12/24 01:33:26;;;;;;;25.33;6.22;;;10.90;99.90;;;;;;5113643;28;20195;-55
2022/12/24 01:35:52;;;;;;;26.17;6.88;;;10.90;99.90;;;;;;5114256;28;20169;-57
2022/12/24 01:38:17;;;;;;;27.27;6.38;;;11.00;99.90;;;;;;5117875;28;20172;-57
2022/12/24 01:43:31;;;;;;;26.15;6.47;;;10.90;99.90;;;;;;5117838;28;20200;-57
2022/12/24 01:46:06;;;;;;;22.83;5.70;;;11.00;99.90;;;;;;5117500;28;20173;-56
2022/12/24 01:48:43;;;;;;;23.25;6.15;;;11.00;99.90;;;;;;5117407;27;20302;-55
2022/12/24 01:51:34;;;;;;;23.98;6.00;;;11.00;99.90;;;;;;5117532;28;20204;-57
2022/12/24 01:54:05;;;;;;;24.95;6.07;;;11.00;99.90;;;;;;5117359;28;20633;-56
2022/12/24 01:56:32;;;;;;;24.58;6.32;;;11.00;99.90;;;;;;5117297;28;20552;-57
2022/12/24 01:59:05;;;;;;;26.42;6.57;;;11.00;99.90;;;;;;5117156;28;20177;-54
2022/12/24 02:01:31;;;;;;;25.13;6.78;;;11.00;99.90;;;;;;5117468;28;20169;-56
2022/12/24 02:03:57;;;;;;;36.60;8.30;;;10.90;99.90;;;;;;5117301;28;20638;-56
2022/12/24 02:06:23;;;;;;;35.78;8.02;;;11.00;99.90;;;;;;5117487;28;20165;-55
2022/12/24 02:08:49;;;;;;;29.88;7.57;;;11.00;99.90;;;;;;5117141;28;20173;-55
2022/12/24 02:11:19;;;;;;;37.58;7.63;;;11.00;99.90;;;;;;5116995;28;20209;-55
2022/12/24 02:13:48;;;;;;;33.83;8.00;;;11.00;99.90;;;;;;5116959;28;20602;-56
2022/12/24 02:16:23;;;;;;;29.15;7.57;;;11.10;99.90;;;;;;5116869;28;20172;-57
2022/12/24 02:19:10;;;;;;;36.20;7.30;;;11.10;99.90;;;;;;5116977;28;20171;-55
2022/12/24 02:21:42;;;;;;;35.75;7.28;;;11.10;99.90;;;;;;5116781;28;20173;-57
2022/12/24 02:24:16;;;;;;;32.97;7.93;;;11.10;99.90;;;;;;5116755;28;20176;-56
2022/12/24 02:26:53;;;;;;;32.72;7.50;;;11.10;99.90;;;;;;5116885;28;20184;-56
2022/12/24 02:29:25;;;;;;;31.33;7.63;;;11.00;99.90;;;;;;5116720;28;20169;-55
2022/12/24 02:32:46;;;;;;;42.50;8.48;;;11.00;99.90;;;;;;5116636;28;20177;-57
2022/12/24 02:35:36;;;;;;;38.05;8.65;;;11.00;99.90;;;;;;5084042;28;20186;-56
2022/12/24 02:38:13;;;;;;;43.13;9.07;;;11.00;99.90;;;;;;5116550;28;20165;-55
2022/12/24 02:40:48;;;;;;;42.03;8.45;;;11.00;99.90;;;;;;5116394;28;20189;-56
2022/12/24 02:43:19;;;;;;;44.58;9.65;;;11.00;99.90;;;;;;5116533;28;20208;-58
2022/12/24 02:45:48;;;;;;;39.92;8.27;;;10.90;99.90;;;;;;5116530;28;20191;-56
2022/12/24 02:48:16;;;;;;;40.13;8.75;;;10.90;99.90;;;;;;5116387;28;20162;-55
2022/12/24 02:50:54;;;;;;;44.00;8.90;;;10.80;99.90;;;;;;5116243;28;20658;-56
2022/12/24 02:53:20;;;;;;;36.15;8.38;;;10.80;99.90;;;;;;5116288;28;20177;-56
2022/12/24 02:56:01;;;;;;;41.40;7.75;;;10.70;99.90;;;;;;5116238;28;20714;-56
2022/12/24 02:58:41;;;;;;;40.38;9.02;;;10.80;99.90;;;;;;5116269;28;20564;-56
2022/12/24 03:01:22;;;;;;;31.00;7.88;;;10.90;99.90;;;;;;5116086;28;20210;-56
2022/12/24 03:04:17;;;;;;;37.15;8.27;;;10.80;99.90;;;;;;5116289;28;20634;-56
2022/12/24 03:06:51;;;;;;;38.63;7.13;;;11.00;99.90;;;;;;5114867;28;20201;-57
2022/12/24 03:09:24;;;;;;;34.53;7.22;;;10.90;99.90;;;;;;5115953;28;20168;-56
2022/12/24 03:11:58;;;;;;;38.60;7.65;;;10.90;99.90;;;;;;5115758;28;20596;-57
2022/12/24 03:14:25;;;;;;;32.92;6.50;;;11.00;99.90;;;;;;5116107;28;20198;-56
2022/12/24 03:16:51;;;;;;;32.83;6.57;;;10.90;99.90;;;;;;5115900;28;20173;-56
2022/12/24 03:19:18;;;;;;;29.42;6.78;;;10.90;99.90;;;;;;5115991;28;20178;-56
2022/12/24 03:21:46;;;;;;;31.50;6.82;;;10.80;99.90;;;;;;5115729;28;20260;-54
2022/12/24 03:24:12;;;;;;;26.58;6.22;;;10.80;99.90;;;;;;5115662;27;20491;-55
2022/12/24 03:26:39;;;;;;;31.55;7.57;;;10.80;99.90;;;;;;5115792;28;20181;-57
2022/12/24 03:29:07;;;;;;;31.45;7.55;;;10.80;99.90;;;;;;5115666;28;20165;-56
2022/12/24 03:32:00;;;;;;;28.65;6.45;;;10.90;99.90;;;;;;5114209;28;20201;-56
2022/12/24 03:34:26;;;;;;;26.17;6.97;;;10.90;99.90;;;;;;5112794;27;20189;-57
2022/12/24 03:36:52;;;;;;;31.88;7.22;;;11.00;99.90;;;;;;5115540;28;20180;-56
2022/12/24 03:39:18;;;;;;;29.27;6.50;;;11.00;99.90;;;;;;5114716;28;20865;-56
2022/12/24 03:41:43;;;;;;;29.30;7.15;;;10.90;99.90;;;;;;5115161;28;20669;-55
2022/12/24 03:44:13;;;;;;;30.02;7.07;;;10.80;99.90;;;;;;5114194;28;20627;-55
2022/12/24 03:46:38;;;;;;;26.55;6.53;;;10.80;99.90;;;;;;5115224;28;20179;-58
2022/12/24 03:49:04;;;;;;;27.08;6.40;;;10.80;99.90;;;;;;5113962;28;20173;-56
2022/12/24 03:51:32;;;;;;;29.92;6.97;;;10.90;99.90;;;;;;5114929;28;20678;-56
2022/12/24 03:53:58;;;;;;;28.13;6.68;;;10.90;99.90;;;;;;5115170;28;20173;-56
2022/12/24 03:56:24;;;;;;;33.78;7.70;;;10.90;99.90;;;;;;5115123;27;20166;-56
2022/12/24 03:58:50;;;;;;;31.15;7.30;;;10.80;99.90;;;;;;5114503;28;20231;-58
2022/12/24 04:01:16;;;;;;;29.45;7.07;;;10.90;99.90;;;;;;5114946;28;20177;-57
2022/12/24 04:03:43;;;;;;;34.30;7.20;;;10.80;99.90;;;;;;5114879;28;20627;-56
2022/12/24 04:06:14;;;;;;;35.22;7.57;;;10.70;99.90;;;;;;5114637;28;20204;-55
2022/12/24 04:08:41;;;;;;;32.95;6.75;;;10.70;99.90;;;;;;5114935;28;20242;-56
2022/12/24 04:11:10;;;;;;;32.63;7.47;;;10.70;99.90;;;;;;5114809;28;20218;-55
2022/12/24 04:13:35;;;;;;;28.98;6.68;;;10.70;99.90;;;;;;5114766;28;20200;-56
2022/12/24 04:16:06;;;;;;;36.38;7.82;;;10.80;99.90;;;;;;5114586;28;20537;-56
2022/12/24 04:18:31;;;;;;;31.70;7.28;;;10.80;99.90;;;;;;5114554;28;20160;-55
2022/12/24 04:20:57;;;;;;;30.95;7.38;;;10.70;99.90;;;;;;5114707;28;20180;-55
2022/12/24 04:23:23;;;;;;;34.65;7.25;;;10.70;99.90;;;;;;5114440;28;20242;-56
2022/12/24 04:25:49;;;;;;;30.58;7.15;;;10.70;99.90;;;;;;5114598;28;20170;-55
2022/12/24 04:28:15;;;;;;;32.47;7.88;;;10.60;99.90;;;;;;5114446;28;20177;-55
2022/12/24 04:30:42;;;;;;;29.90;7.47;;;10.50;99.90;;;;;;5114233;28;20242;-57
2022/12/24 04:33:08;;;;;;;32.10;7.97;;;10.60;99.90;;;;;;5114376;28;20177;-55
2022/12/24 04:35:38;;;;;;;29.95;7.50;;;10.60;99.90;;;;;;5114470;28;20269;-55
2022/12/24 04:38:04;;;;;;;38.70;8.75;;;10.50;99.90;;;;;;5114287;28;20168;-57
2022/12/24 04:40:30;;;;;;;30.10;7.75;;;10.50;99.90;;;;;;5114152;28;20751;-56
2022/12/24 04:42:55;;;;;;;32.17;7.88;;;10.50;99.90;;;;;;5114043;28;20280;-57
2022/12/24 04:45:21;;;;;;;30.23;8.40;;;10.50;99.90;;;;;;5114121;28;20172;-57
2022/12/24 04:47:47;;;;;;;31.08;7.75;;;10.40;99.90;;;;;;5113965;28;20622;-55
2022/12/24 04:50:12;;;;;;;30.83;8.25;;;10.50;99.90;;;;;;5114105;28;20201;-56
2022/12/24 04:52:38;;;;;;;33.25;8.10;;;10.40;99.90;;;;;;5114081;28;20282;-56
2022/12/24 04:55:04;;;;;;;34.08;8.00;;;10.30;99.90;;;;;;5114198;28;20267;-57
2022/12/24 04:57:32;;;;;;;34.13;7.95;;;10.30;99.90;;;;;;5113999;28;20234;-57
2022/12/24 04:59:58;;;;;;;36.88;8.15;;;10.30;99.90;;;;;;5113879;28;20528;-56
2022/12/24 05:02:24;;;;;;;33.90;8.02;;;10.30;99.90;;;;;;5113767;28;20183;-55
2022/12/24 05:04:49;;;;;;;29.98;8.48;;;10.30;99.90;;;;;;5112969;28;20177;-57
2022/12/24 05:07:15;;;;;;;35.33;8.65;;;10.20;99.90;;;;;;5113726;28;20538;-58
2022/12/24 05:09:41;;;;;;;36.95;8.95;;;10.10;99.90;;;;;;5113653;28;20197;-57
2022/12/24 05:12:06;;;;;;;39.67;8.57;;;10.10;99.90;;;;;;5113025;28;20189;-55
2022/12/24 05:14:32;;;;;;;35.83;8.60;;;10.10;99.90;;;;;;5113508;28;20177;-57
2022/12/24 05:16:58;;;;;;;38.60;8.43;;;10.00;99.90;;;;;;5113846;28;20252;-55
2022/12/24 05:19:24;;;;;;;35.30;8.68;;;10.10;99.90;;;;;;5113575;28;20173;-56
2022/12/24 05:26:20;;;;;;;37.13;7.97;;;10.00;99.90;;;;;;5112540;28;20572;-58
2022/12/24 05:27:20;;;;;;;37.78;8.52;;;10.00;99.90;;;;;;5113820;28;20196;-56
2022/12/24 05:29:46;;;;;;;43.42;9.18;;;10.00;99.90;;;;;;5113667;28;20220;-55
2022/12/24 05:32:11;;;;;;;40.72;8.18;;;10.10;99.90;;;;;;5113651;28;20216;-56
2022/12/24 05:34:37;;;;;;;40.58;8.82;;;10.10;99.90;;;;;;5113571;28;20199;-57
2022/12/24 05:37:03;;;;;;;36.17;8.10;;;10.00;99.90;;;;;;5113574;28;20173;-55
2022/12/24 05:39:28;;;;;;;37.47;9.20;;;9.90;99.90;;;;;;5113393;28;20170;-57
2022/12/24 05:41:54;;;;;;;34.95;9.43;;;10.00;99.90;;;;;;5113356;28;20180;-56
2022/12/24 05:44:19;;;;;;;37.13;8.80;;;10.00;99.90;;;;;;5113437;28;20626;-55
2022/12/24 05:46:45;;;;;;;39.28;8.93;;;10.00;99.90;;;;;;5113816;28;20169;-56
2022/12/24 05:49:11;;;;;;;38.90;9.15;;;9.90;99.90;;;;;;5113334;28;20588;-56
2022/12/24 05:51:39;;;;;;;39.95;8.70;;;10.10;99.90;;;;;;5113372;28;20205;-56
2022/12/24 05:54:05;;;;;;;36.85;8.98;;;10.20;99.90;;;;;;5113313;28;20174;-56
2022/12/24 05:56:31;;;;;;;40.45;9.25;;;10.20;99.90;;;;;;5113530;28;20687;-56
2022/12/24 05:58:57;;;;;;;39.20;9.30;;;10.30;99.90;;;;;;5113219;28;20634;-56
2022/12/24 06:01:26;;;;;;;39.45;8.40;;;10.30;99.90;;;;;;5113193;28;20184;-55
2022/12/24 06:03:52;;;;;;;33.90;7.72;;;10.30;99.90;;;;;;5113096;28;20689;-55
2022/12/24 06:06:21;;;;;;;32.05;8.60;;;10.40;99.90;;;;;;5113196;28;20266;-54
2022/12/24 06:08:48;;;;;;;37.60;8.00;;;10.40;99.90;;;;;;5113113;28;20177;-55
2022/12/24 06:11:17;;;;;;;30.65;8.18;;;10.40;99.90;;;;;;5113243;28;20209;-55
2022/12/24 06:13:43;;;;;;;40.30;8.57;;;10.40;99.90;;;;;;5113291;28;20169;-55
2022/12/24 06:16:12;;;;;;;45.88;8.68;;;10.40;99.90;;;;;;5113254;28;20533;-54
2022/12/24 06:18:38;;;;;;;43.65;9.30;;;10.40;99.90;;;;;;5113120;28;20162;-55
2022/12/24 06:21:05;;;;;;;45.10;9.48;;;10.40;99.90;;;;;;5113012;28;20182;-54
2022/12/24 06:23:33;;;;;;;31.58;7.95;;;10.40;99.90;;;;;;5116188;28;20578;-54
2022/12/24 06:26:00;;;;;;;36.03;8.35;;;10.40;99.90;;;;;;5116995;28;20622;-54
2022/12/24 06:28:31;;;;;;;35.70;7.97;;;10.40;99.90;;;;;;5117123;28;20173;-56
2022/12/24 06:30:57;;;;;;;40.40;9.10;;;10.40;99.90;;;;;;5116704;28;20237;-55
2022/12/24 06:33:23;;;;;;;37.75;8.30;;;10.40;99.90;;;;;;5114933;28;20219;-56
2022/12/24 06:35:48;;;;;;;36.05;8.23;;;10.40;99.90;;;;;;5116527;28;20173;-52
2022/12/24 06:38:15;;;;;;;41.35;8.55;;;10.40;99.90;;;;;;5116406;28;20185;-53
2022/12/24 06:40:42;;;;;;;36.88;9.27;;;10.40;99.90;;;;;;5116458;28;20177;-54
2022/12/24 06:43:08;;;;;;;42.10;8.93;;;10.50;99.90;;;;;;5116288;28;20208;-55
2022/12/24 06:45:34;;;;;;;33.20;7.80;;;10.50;99.90;;;;;;5116402;28;20177;-54
2022/12/24 06:48:00;;;;;;;28.67;8.35;;;10.60;99.90;;;;;;5116292;28;20184;-54
2022/12/24 06:50:26;;;;;;;40.67;8.88;;;10.50;99.90;;;;;;5116108;28;20201;-57
2022/12/24 06:52:52;;;;;;;37.88;8.68;;;10.50;99.90;;;;;;5116383;28;20206;-53
2022/12/24 06:55:18;;;;;;;37.75;8.50;;;10.50;99.90;;;;;;5116289;28;20193;-54
2022/12/24 06:57:43;;;;;;;41.03;9.63;;;10.60;99.90;;;;;;5114765;28;20178;-55
2022/12/24 07:00:11;;;;;;;35.83;9.15;;;10.60;99.90;;;;;;5115986;28;20227;-54
2022/12/24 07:02:41;;;;;;;34.22;8.32;;;10.60;99.90;;;;;;5116086;28;20166;-54
2022/12/24 07:05:09;;;;;;;41.90;8.38;;;10.70;99.90;;;;;;5115884;28;20193;-55
2022/12/24 07:07:37;;;;;;;46.72;8.70;;;10.60;99.90;;;;;;5116001;28;20699;-55
2022/12/24 07:10:03;;;;;;;40.88;8.43;;;10.60;99.90;;;;;;5115870;28;20197;-54
2022/12/24 07:12:29;;;;;;;42.42;9.27;;;10.60;99.90;;;;;;5113142;28;20220;-54
2022/12/24 07:14:54;;;;;;;39.92;8.68;;;10.60;99.90;;;;;;5111933;28;20209;-56
2022/12/24 07:17:20;;;;;;;39.55;8.30;;;10.70;99.90;;;;;;5113775;28;20226;-54
2022/12/24 07:19:46;;;;;;;40.97;9.82;;;10.60;99.90;;;;;;5115418;28;20264;-54
2022/12/24 07:22:11;;;;;;;44.83;10.77;;;10.60;99.90;;;;;;5113967;28;20188;-55
2022/12/24 07:24:37;;;;;;;35.55;8.43;;;10.60;99.90;;;;;;5114244;28;20584;-57
2022/12/24 07:27:03;;;;;;;39.22;10.00;;;10.70;99.90;;;;;;5115398;28;20173;-54
2022/12/24 07:29:29;;;;;;;41.15;10.30;;;10.80;99.90;;;;;;5096998;28;20230;-54
2022/12/24 07:31:54;;;;;;;42.83;10.90;;;10.70;99.90;;;;;;5113972;28;20185;-54
2022/12/24 07:34:20;;;;;;;38.72;9.32;;;10.60;99.90;;;;;;5114042;28;20177;-56
2022/12/24 07:36:45;;;;;;;44.53;9.98;;;10.60;99.90;;;;;;5113331;28;20219;-57
2022/12/24 07:39:11;;;;;;;44.17;10.13;;;10.60;99.90;;;;;;5111726;28;20173;-58
2022/12/24 07:41:37;;;;;;;41.22;10.27;;;10.70;99.90;;;;;;5113319;28;20173;-55
2022/12/24 07:44:02;;;;;;;34.03;10.15;;;10.60;99.90;;;;;;5115092;28;20177;-55
2022/12/24 07:46:28;;;;;;;38.50;9.48;;;10.60;99.90;;;;;;5115275;28;20522;-54
2022/12/24 07:48:54;;;;;;;37.35;9.35;;;10.60;99.90;;;;;;5114755;28;20543;-55
2022/12/24 07:51:19;;;;;;;39.40;9.43;;;10.60;99.90;;;;;;5114687;28;20658;-53
2022/12/24 07:53:46;;;;;;;39.83;9.30;;;10.50;99.90;;;;;;5112813;28;20181;-54
2022/12/24 07:56:16;;;;;;;32.90;9.65;;;10.40;99.90;;;;;;5113592;28;20181;-54
2022/12/24 07:58:42;;;;;;;41.47;10.43;;;10.40;99.90;;;;;;5114985;28;20173;-52
2022/12/24 08:01:08;;;;;;;36.78;9.80;;;10.30;99.90;;;;;;5108448;27;20210;-51
2022/12/24 08:03:34;;;;;;;35.33;10.02;;;10.30;99.90;;;;;;5093171;28;20170;-53
2022/12/24 08:06:00;;;;;;;39.65;10.60;;;10.20;99.90;;;;;;5094480;28;20176;-53
2022/12/24 08:08:25;;;;;;;32.90;9.15;;;10.30;99.90;;;;;;5094292;28;20263;-56
2022/12/24 08:10:51;;;;;;;38.80;9.13;;;10.30;99.90;;;;;;5094230;28;20237;-53
2022/12/24 08:13:17;;;;;;;44.25;9.07;;;10.30;99.90;;;;;;5099340;28;20184;-54
2022/12/24 08:15:43;;;;;;;35.78;9.60;;;10.30;99.90;;;;;;5113637;28;20642;-54
2022/12/24 08:18:10;;;;;;;34.80;8.85;;;10.40;99.90;;;;;;5113686;28;20918;-54
2022/12/24 08:20:39;;;;;;;36.00;8.98;;;10.40;99.90;;;;;;5113093;28;20259;-54
2022/12/24 08:23:06;;;;;;;34.42;8.68;;;10.40;99.90;;;;;;5114114;28;20695;-53
2022/12/24 08:25:32;;;;;;;39.10;9.85;;;10.40;99.90;;;;;;5113842;27;20174;-55
2022/12/24 08:27:58;;;;;;;36.53;9.07;;;10.40;99.90;;;;;;5113807;28;20239;-54
2022/12/24 08:30:23;;;;;;;34.83;9.23;;;10.40;99.90;;;;;;5111903;28;20197;-55
2022/12/24 08:32:49;;;;;;;34.38;8.93;;;10.40;99.90;;;;;;5112375;28;20268;-58
2022/12/24 08:35:15;;;;;;;36.35;8.77;;;10.30;99.90;;;;;;5113940;28;20169;-56
2022/12/24 08:37:41;;;;;;;36.75;9.45;;;10.40;99.90;;;;;;5113767;28;20231;-55
2022/12/24 08:40:07;;;;;;;36.72;9.10;;;10.40;99.90;;;;;;5112471;28;20177;-54
2022/12/24 08:42:33;;;;;;;37.00;9.45;;;10.50;99.90;;;;;;5113624;28;20221;-55
2022/12/24 08:44:58;;;;;;;26.48;8.27;;;10.40;99.90;;;;;;5113428;28;20238;-54
2022/12/24 08:47:24;;;;;;;36.85;9.77;;;10.40;99.90;;;;;;5113412;28;20271;-58
2022/12/24 08:49:50;;;;;;;37.47;9.55;;;10.40;99.90;;;;;;5113291;28;20184;-56
2022/12/24 08:52:15;;;;;;;37.05;9.00;;;10.30;99.90;;;;;;5113493;28;20184;-59
2022/12/24 08:54:41;;;;;;;29.40;8.88;;;10.30;99.90;;;;;;5113505;28;20169;-54
2022/12/24 08:57:07;;;;;;;39.92;8.90;;;10.40;99.90;;;;;;5113463;28;20256;-57
2022/12/24 08:59:32;;;;;;;34.10;9.40;;;10.40;99.90;;;;;;5113483;28;20177;-56
2022/12/24 09:01:58;;;;;;;35.65;8.40;;;10.30;99.90;;;;;;5113095;28;20222;-53
2022/12/24 09:04:24;;;;;;;36.10;9.43;;;10.30;99.90;;;;;;5113287;28;20234;-54
2022/12/24 09:06:49;;;;;;;37.22;8.98;;;10.30;99.90;;;;;;5112573;28;20669;-57
2022/12/24 09:09:15;;;;;;;38.85;8.90;;;10.30;99.90;;;;;;5113289;28;20700;-58
2022/12/24 09:11:41;;;;;;;36.17;8.77;;;10.40;99.90;;;;;;5113448;28;20600;-53
2022/12/24 09:14:06;;;;;;;35.33;8.82;;;10.40;99.90;;;;;;5113046;28;20185;-57
2022/12/24 09:16:32;;;;;;;35.67;9.38;;;10.40;99.90;;;;;;5113015;28;20185;-57
2022/12/24 09:18:58;;;;;;;29.52;8.82;;;10.30;99.90;;;;;;5113223;28;20256;-55
2022/12/24 09:21:24;;;;;;;36.38;9.50;;;10.40;99.90;;;;;;5113117;28;20237;-54
2022/12/24 09:23:49;;;;;;;35.58;8.55;;;10.50;99.90;;;;;;5112766;28;20176;-59
2022/12/24 09:26:20;;;;;;;29.23;8.55;;;10.50;99.90;;;;;;5113112;28;20633;-53
2022/12/24 09:28:46;;;;;;;31.85;8.60;;;10.50;99.90;;;;;;5112942;28;20173;-53
2022/12/24 09:31:12;;;;;;;36.65;8.98;;;10.60;99.90;;;;;;5112819;28;20289;-56
2022/12/24 09:33:40;;;;;;;35.58;8.65;;;10.70;99.90;;;;;;5113070;28;20185;-55
2022/12/24 09:36:06;;;;;;;32.15;8.98;;;10.70;99.90;;;;;;5112849;28;20222;-56
2022/12/24 09:38:33;;;;;;;34.83;8.88;;;10.80;99.90;;;;;;5113323;28;20252;-53
2022/12/24 09:41:00;;;;;;;33.33;8.27;;;10.80;99.90;;;;;;5111569;28;20173;-54
2022/12/24 09:43:31;;;;;;;31.90;8.23;;;10.90;99.90;;;;;;5113172;28;20748;-58
2022/12/24 09:46:11;;;;;;;32.78;9.00;;;11.00;99.90;;;;;;5113106;28;20236;-54
2022/12/24 09:48:42;;;;;;;34.35;8.40;;;11.00;99.90;;;;;;5112769;28;20638;-54
2022/12/24 09:51:14;;;;;;;35.65;9.15;;;11.10;99.90;;;;;;5112820;28;20201;-52
2022/12/24 09:53:50;;;;;;;34.58;8.85;;;11.20;99.90;;;;;;5112829;28;20174;-53
2022/12/24 09:56:39;;;;;;;32.60;8.52;;;11.30;99.90;;;;;;5112664;28;20216;-54
2022/12/24 09:59:09;;;;;;;29.85;8.27;;;11.20;99.90;;;;;;5115516;28;20600;-53
2022/12/24 10:01:35;;;;;;;31.48;9.65;;;11.30;99.90;;;;;;5116828;28;20219;-54
2022/12/24 10:04:23;;;;;;;36.50;9.25;;;11.20;99.90;;;;;;5116651;28;20614;-54
2022/12/24 10:06:54;;;;;;;32.53;8.30;;;11.20;99.90;;;;;;5115394;28;20570;-54
2022/12/24 10:09:31;;;;;;;32.97;7.97;;;11.20;99.90;;;;;;5116740;28;20574;-53
2022/12/24 10:12:15;;;;;;;29.92;7.57;;;11.30;99.90;;;;;;5116455;28;20246;-57
2022/12/24 10:15:06;;;;;;;32.13;8.43;;;11.30;99.90;;;;;;5116782;28;20642;-56
2022/12/24 10:17:58;;;;;;;30.83;8.18;;;11.40;99.90;;;;;;5116819;28;20172;-53
2022/12/24 10:20:45;;;;;;;30.63;8.57;;;11.30;99.90;;;;;;5116502;28;20185;-54
2022/12/24 10:23:27;;;;;;;28.27;8.05;;;11.30;99.90;;;;;;5116223;28;20601;-54
2022/12/24 10:26:00;;;;;;;29.23;8.10;;;11.20;99.90;;;;;;5116502;28;20173;-56
2022/12/24 10:28:34;;;;;;;34.53;8.60;;;11.30;99.90;;;;;;5116110;28;20283;-58
2022/12/24 10:31:03;;;;;;;35.53;8.82;;;11.30;99.90;;;;;;5116228;28;20209;-53
2022/12/24 10:33:40;;;;;;;31.98;8.50;;;11.30;99.90;;;;;;5115965;27;20169;-54
2022/12/24 10:36:15;;;;;;;27.60;8.02;;;11.30;99.90;;;;;;5116239;28;20191;-53
2022/12/24 10:38:40;;;;;;;28.50;8.63;;;11.20;99.90;;;;;;5116040;28;20634;-57
2022/12/24 10:41:07;;;;;;;32.10;8.75;;;11.20;99.90;;;;;;5116086;28;20203;-56
2022/12/24 10:43:34;;;;;;;30.58;8.18;;;11.30;99.90;;;;;;5115774;28;20193;-54
2022/12/24 10:46:07;;;;;;;31.83;8.95;;;11.20;99.90;;;;;;5115652;28;20166;-54
2022/12/24 10:48:41;;;;;;;34.15;8.18;;;11.20;99.90;;;;;;5116036;28;20638;-56
2022/12/24 10:51:29;;;;;;;36.47;9.25;;;11.20;99.90;;;;;;5115732;28;20211;-55
2022/12/24 10:54:01;;;;;;;32.25;9.40;;;11.40;99.90;;;;;;5115774;28;20222;-53
2022/12/24 10:56:27;;;;;;;30.48;8.80;;;11.40;99.90;;;;;;5115740;28;20176;-52
2022/12/24 10:58:54;;;;;;;28.10;8.15;;;11.60;99.90;;;;;;5115515;28;20177;-52
2022/12/24 11:01:43;;;;;;;33.72;8.88;;;11.70;99.90;;;;;;5115623;28;20227;-52
2022/12/24 11:04:16;;;;;;;29.67;8.63;;;11.90;99.90;;;;;;5115551;28;20184;-53
2022/12/24 11:07:17;;;;;;;32.42;8.82;;;12.10;99.90;;;;;;5115410;28;20227;-53
2022/12/24 11:09:57;;;;;;;34.25;9.05;;;12.10;99.90;;;;;;5103288;28;20291;-52
2022/12/24 11:12:26;;;;;;;27.42;7.95;;;12.10;99.90;;;;;;5115259;28;20527;-53
2022/12/24 11:15:33;;;;;;;33.65;8.18;;;12.10;99.90;;;;;;5115293;28;20236;-54
2022/12/24 11:18:05;;;;;;;28.85;8.23;;;12.20;99.90;;;;;;5084600;27;20336;-51
2022/12/24 11:20:33;;;;;;;27.67;7.82;;;12.10;99.90;;;;;;5115197;28;20249;-53
2022/12/24 11:23:00;;;;;;;27.70;8.02;;;12.30;99.90;;;;;;5115258;28;20219;-51
2022/12/24 11:25:31;;;;;;;27.70;8.25;;;12.30;99.90;;;;;;5113734;28;20174;-54
2022/12/24 11:28:11;;;;;;;32.47;8.43;;;12.30;99.90;;;;;;5114986;28;20170;-52
2022/12/24 11:30:37;;;;;;;26.92;7.53;;;12.20;99.90;;;;;;5115093;28;20230;-52
2022/12/24 11:33:03;;;;;;;28.15;7.68;;;12.30;99.90;;;;;;5115001;28;20699;-56
2022/12/24 11:35:32;;;;;;;25.80;7.65;;;12.20;99.90;;;;;;5111509;28;20169;-54
2022/12/24 11:38:03;;;;;;;25.77;7.72;;;12.30;99.90;;;;;;5111912;28;20447;-53
2022/12/24 11:40:44;;;;;;;33.30;8.55;;;12.30;99.90;;;;;;5111039;28;20609;-51
2022/12/24 11:43:19;;;;;;;26.23;7.63;;;12.40;99.90;;;;;;5114283;28;20200;-53
2022/12/24 11:45:53;;;;;;;31.33;8.13;;;12.40;99.90;;;;;;5114441;28;20685;-53
2022/12/24 11:48:37;;;;;;;25.65;7.95;;;12.50;99.90;;;;;;5114315;28;20234;-51
2022/12/24 11:51:06;;;;;;;29.95;7.82;;;12.60;99.90;;;;;;5114584;28;20208;-53
2022/12/24 11:53:45;;;;;;;25.70;7.07;;;12.70;99.90;;;;;;5114563;28;20244;-54
2022/12/24 11:56:29;;;;;;;27.05;7.30;;;12.70;99.90;;;;;;5114418;28;20169;-53
2022/12/24 11:59:08;;;;;;;28.73;7.72;;;12.70;99.90;;;;;;5113838;28;20556;-50
2022/12/24 12:01:40;;;;;;;25.60;7.38;;;12.80;99.90;;;;;;5113487;28;20575;-52
2022/12/24 12:04:14;;;;;;;24.20;8.10;;;12.90;99.90;;;;;;5114451;28;20169;-54
2022/12/24 12:07:24;;;;;;;29.73;7.90;;;12.90;99.90;;;;;;5113928;28;20173;-53
2022/12/24 12:09:57;;;;;;;27.27;7.78;;;12.80;99.90;;;;;;5105735;28;20189;-53
2022/12/24 12:12:22;;;;;;;29.45;7.55;;;12.90;99.90;;;;;;5114169;28;20185;-52
2022/12/24 12:15:02;;;;;;;28.33;7.43;;;13.00;99.90;;;;;;5114375;28;20272;-53
2022/12/24 12:17:45;;;;;;;33.60;7.68;;;13.00;99.90;;;;;;5093561;28;20631;-51
2022/12/24 12:20:20;;;;;;;26.65;7.72;;;13.00;99.90;;;;;;5105632;28;20247;-53
2022/12/24 12:23:12;;;;;;;21.63;7.38;;;13.20;99.90;;;;;;5113962;28;20206;-53
2022/12/24 12:25:57;;;;;;;24.05;6.72;;;13.10;99.90;;;;;;5085070;28;20181;-53
2022/12/24 12:28:44;;;;;;;23.48;7.18;;;13.00;99.90;;;;;;5113757;28;20176;-53
2022/12/24 12:31:31;;;;;;;26.08;7.38;;;12.90;99.90;;;;;;5113608;28;20222;-54
2022/12/24 12:34:10;;;;;;;29.95;8.23;;;12.90;99.90;;;;;;5113753;28;20177;-55
2022/12/24 12:36:46;;;;;;;27.98;7.15;;;12.90;99.90;;;;;;5113591;28;20165;-53
2022/12/24 12:39:12;;;;;;;28.75;7.93;;;12.90;99.90;;;;;;5113365;28;20184;-54
2022/12/24 12:42:06;;;;;;;25.10;7.28;;;12.80;99.90;;;;;;5111855;28;20208;-53
2022/12/24 12:45:13;;;;;;;29.15;7.72;;;12.80;99.90;;;;;;5113367;28;20173;-52
2022/12/24 12:48:00;;;;;;;28.23;7.53;;;12.90;99.90;;;;;;5113742;28;20169;-53
2022/12/24 12:50:31;;;;;;;24.13;7.00;;;12.80;99.90;;;;;;5111410;28;20545;-56
2022/12/24 12:53:15;;;;;;;30.35;7.97;;;12.80;99.90;;;;;;5112759;28;20181;-52
2022/12/24 12:56:08;;;;;;;25.05;7.30;;;12.80;99.90;;;;;;5112376;28;20248;-53